createdAt,value
2022-12-28T00:01:36.055Z,2.30
2022-12-28T00:04:05.720Z,2.50
2022-12-28T00:06:34.367Z,2.80
2022-12-28T00:09:02.723Z,2.60
2022-12-28T00:11:31.029Z,2.13
2022-12-28T00:14:01.804Z,2.17
2022-12-28T00:16:33.868Z,2.60
2022-12-28T00:19:01.989Z,2.63
2022-12-28T00:21:29.430Z,2.20
2022-12-28T00:23:58.509Z,2.37
2022-12-28T00:26:27.731Z,2.60
2022-12-28T00:29:01.491Z,2.70
2022-12-28T00:31:31.376Z,2.50
2022-12-28T00:33:58.469Z,2.57
2022-12-28T00:37:10.213Z,2.40
2022-12-28T00:39:13.063Z,2.67
2022-12-28T00:41:40.162Z,2.40
2022-12-28T00:44:07.267Z,2.50
2022-12-28T00:46:34.436Z,2.67
2022-12-28T00:49:01.097Z,2.70
2022-12-28T00:51:27.823Z,2.50
2022-12-28T00:53:54.957Z,2.60
2022-12-28T00:56:23.920Z,2.63
2022-12-28T00:58:51.159Z,2.40
2022-12-28T01:01:19.880Z,2.60
2022-12-28T01:03:47.404Z,2.30
2022-12-28T01:06:15.899Z,2.57
2022-12-28T01:08:43.081Z,2.13
2022-12-28T01:11:10.844Z,2.40
2022-12-28T01:13:38.329Z,2.50
2022-12-28T01:16:21.266Z,2.67
2022-12-28T01:18:48.679Z,2.40
2022-12-28T01:21:18.224Z,2.33
2022-12-28T01:23:46.059Z,2.60
2022-12-28T01:26:13.633Z,2.30
2022-12-28T01:28:40.783Z,2.80
2022-12-28T01:31:10.332Z,2.23
2022-12-28T01:33:37.634Z,2.60
2022-12-28T01:36:08.515Z,2.47
2022-12-28T01:38:36.449Z,2.90
2022-12-28T01:41:06.496Z,2.40
2022-12-28T01:43:42.985Z,2.33
2022-12-28T01:46:21.134Z,2.37
2022-12-28T01:48:51.191Z,2.50
2022-12-28T01:51:18.790Z,2.40
2022-12-28T01:53:47.011Z,2.17
2022-12-28T01:56:14.095Z,2.30
2022-12-28T01:58:41.386Z,2.30
2022-12-28T02:01:08.653Z,2.50
2022-12-28T02:03:36.568Z,2.50
2022-12-28T02:06:06.483Z,2.40
2022-12-28T02:08:42.895Z,2.10
2022-12-28T02:11:12.269Z,2.53
2022-12-28T02:13:39.802Z,3.00
2022-12-28T02:16:07.035Z,2.60
2022-12-28T02:18:34.278Z,2.20
2022-12-28T02:21:07.333Z,2.40
2022-12-28T02:24:01.388Z,2.30
2022-12-28T02:26:36.850Z,2.20
2022-12-28T02:29:16.211Z,2.60
2022-12-28T02:32:01.918Z,2.70
2022-12-28T02:34:43.219Z,2.20
2022-12-28T02:37:21.735Z,2.43
2022-12-28T02:40:11.788Z,1.97
2022-12-28T02:42:40.033Z,2.30
2022-12-28T02:45:26.267Z,2.27
2022-12-28T02:48:11.938Z,2.20
2022-12-28T02:51:01.807Z,2.60
2022-12-28T02:53:34.014Z,2.47
2022-12-28T02:56:28.997Z,2.90
2022-12-28T02:58:58.991Z,2.30
2022-12-28T03:01:31.396Z,2.20
2022-12-28T03:04:12.808Z,2.20
2022-12-28T03:07:14.729Z,2.50
2022-12-28T03:09:41.391Z,2.27
2022-12-28T03:12:14.698Z,2.20
2022-12-28T03:14:44.470Z,2.17
2022-12-28T03:17:31.431Z,2.37
2022-12-28T03:20:21.508Z,2.30
2022-12-28T03:23:09.361Z,2.17
2022-12-28T03:25:57.681Z,2.23
2022-12-28T03:28:43.979Z,2.23
2022-12-28T03:31:13.553Z,2.30
2022-12-28T03:33:51.128Z,2.60
2022-12-28T03:36:25.146Z,2.30
2022-12-28T03:39:04.002Z,1.97
2022-12-28T03:42:17.148Z,1.90
2022-12-28T03:44:52.493Z,2.13
2022-12-28T03:47:19.960Z,2.40
2022-12-28T03:49:46.913Z,2.17
2022-12-28T03:52:14.241Z,2.23
2022-12-28T03:54:41.274Z,2.40
2022-12-28T03:57:08.354Z,2.40
2022-12-28T03:59:35.071Z,2.23
2022-12-28T04:02:01.809Z,2.30
2022-12-28T04:04:28.981Z,2.10
2022-12-28T04:06:55.687Z,1.97
2022-12-28T04:09:23.087Z,2.10
2022-12-28T04:11:49.738Z,2.00
2022-12-28T04:14:16.788Z,2.30
2022-12-28T04:16:43.460Z,1.80
2022-12-28T04:19:10.546Z,2.40
2022-12-28T04:21:37.671Z,2.17
2022-12-28T04:24:04.522Z,2.20
2022-12-28T04:26:31.656Z,2.00
2022-12-28T04:29:01.943Z,2.10
2022-12-28T04:31:30.039Z,2.03
2022-12-28T04:33:58.047Z,2.10
2022-12-28T04:36:25.206Z,2.10
2022-12-28T04:38:52.362Z,2.10
2022-12-28T04:41:19.094Z,2.27
2022-12-28T04:43:46.241Z,2.53
2022-12-28T04:46:15.339Z,1.93
2022-12-28T04:48:42.688Z,2.07
2022-12-28T04:51:20.331Z,1.97
2022-12-28T04:53:47.056Z,1.90
2022-12-28T04:56:14.561Z,2.30
2022-12-28T04:58:41.447Z,2.00
2022-12-28T05:01:13.058Z,2.03
2022-12-28T05:03:41.053Z,1.80
2022-12-28T05:06:09.606Z,1.70
2022-12-28T05:08:37.519Z,1.83
2022-12-28T05:11:05.899Z,1.63
2022-12-28T05:13:33.124Z,1.83
2022-12-28T05:16:07.854Z,1.57
2022-12-28T05:18:34.922Z,2.07
2022-12-28T05:21:07.093Z,1.70
2022-12-28T05:23:35.380Z,1.60
2022-12-28T05:26:02.206Z,1.73
2022-12-28T05:28:28.942Z,1.57
2022-12-28T05:30:59.797Z,1.50
2022-12-28T05:33:26.836Z,1.30
2022-12-28T05:35:53.484Z,1.40
2022-12-28T05:38:20.549Z,1.50
2022-12-28T05:40:47.610Z,1.30
2022-12-28T05:43:14.691Z,1.30
2022-12-28T05:45:41.388Z,1.50
2022-12-28T05:48:08.481Z,1.60
2022-12-28T05:50:36.061Z,1.40
2022-12-28T05:53:03.121Z,1.47
2022-12-28T05:55:30.192Z,1.40
2022-12-28T05:57:57.472Z,1.23
2022-12-28T06:00:24.542Z,1.63
2022-12-28T06:02:51.678Z,1.43
2022-12-28T06:05:18.827Z,1.40
2022-12-28T06:07:45.870Z,1.20
2022-12-28T06:10:12.493Z,1.40
2022-12-28T06:12:40.189Z,1.40
2022-12-28T06:15:07.542Z,1.60
2022-12-28T06:17:34.218Z,1.30
2022-12-28T06:20:00.877Z,1.60
2022-12-28T06:22:28.570Z,1.53
2022-12-28T06:24:55.217Z,1.30
2022-12-28T06:27:22.346Z,1.40
2022-12-28T06:29:49.026Z,1.50
2022-12-28T06:32:15.734Z,1.50
2022-12-28T06:34:42.825Z,1.60
2022-12-28T06:37:10.033Z,1.47
2022-12-28T06:39:36.765Z,1.30
2022-12-28T06:42:03.885Z,1.33
2022-12-28T06:44:30.936Z,1.40
2022-12-28T06:46:58.009Z,1.40
2022-12-28T06:49:25.055Z,1.30
2022-12-28T06:51:51.754Z,1.57
2022-12-28T06:54:18.861Z,1.50
2022-12-28T06:56:45.573Z,1.43
2022-12-28T06:59:12.344Z,1.53
2022-12-28T07:01:41.022Z,1.40
2022-12-28T07:04:09.019Z,1.60
2022-12-28T07:06:37.755Z,1.40
2022-12-28T07:09:06.598Z,1.63
2022-12-28T07:11:33.769Z,1.70
2022-12-28T07:14:00.612Z,1.33
2022-12-28T07:18:55.952Z,1.30
2022-12-28T07:21:36.628Z,1.30
2022-12-28T07:24:04.601Z,1.60
2022-12-28T07:26:32.779Z,1.53
2022-12-28T07:29:01.028Z,1.50
2022-12-28T07:31:44.771Z,1.50
2022-12-28T07:34:12.370Z,1.53
2022-12-28T07:36:39.523Z,1.37
2022-12-28T07:39:07.438Z,1.47
2022-12-28T07:41:36.022Z,1.20
2022-12-28T07:44:03.270Z,1.30
2022-12-28T07:46:31.366Z,1.50
2022-12-28T07:48:58.739Z,1.20
2022-12-28T07:51:35.058Z,1.30
2022-12-28T07:54:02.392Z,1.50
2022-12-28T07:56:30.285Z,1.30
2022-12-28T07:58:58.958Z,1.60
2022-12-28T08:01:28.502Z,1.30
2022-12-28T08:03:57.885Z,1.33
2022-12-28T08:06:26.692Z,1.20
2022-12-28T08:08:56.681Z,1.30
2022-12-28T08:11:24.740Z,1.50
2022-12-28T08:13:54.449Z,1.30
2022-12-28T08:16:22.499Z,1.53
2022-12-28T08:18:49.854Z,1.30
2022-12-28T08:21:18.328Z,1.50
2022-12-28T08:23:45.863Z,1.60
2022-12-28T08:26:17.184Z,1.30
2022-12-28T08:28:45.180Z,1.30
2022-12-28T08:31:18.139Z,1.30
2022-12-28T08:33:45.271Z,1.50
2022-12-28T08:36:12.629Z,1.40
2022-12-28T08:38:40.462Z,1.30
2022-12-28T08:41:08.806Z,1.30
2022-12-28T08:43:35.966Z,1.30
2022-12-28T08:46:17.765Z,1.40
2022-12-28T08:48:45.180Z,1.50
2022-12-28T08:51:14.247Z,1.40
2022-12-28T08:53:42.016Z,1.30
2022-12-28T08:56:10.577Z,1.67
2022-12-28T08:58:38.214Z,1.20
2022-12-28T09:01:09.971Z,1.40
2022-12-28T09:03:38.312Z,1.50
2022-12-28T09:06:06.411Z,1.30
2022-12-28T09:08:33.057Z,1.30
2022-12-28T09:11:00.950Z,1.40
2022-12-28T09:13:28.289Z,1.17
2022-12-28T09:16:02.539Z,1.87
2022-12-28T09:18:29.949Z,1.30
2022-12-28T09:20:57.144Z,1.40
2022-12-28T09:23:24.097Z,1.30
2022-12-28T09:25:51.257Z,1.83
2022-12-28T09:28:18.318Z,1.47
2022-12-28T09:30:45.420Z,2.10
2022-12-28T09:33:30.888Z,1.57
2022-12-28T09:35:59.575Z,2.63
2022-12-28T09:38:26.287Z,1.70
2022-12-28T09:40:53.357Z,1.40
2022-12-28T09:43:20.748Z,1.40
2022-12-28T09:45:48.080Z,1.50
2022-12-28T09:48:18.372Z,1.20
2022-12-28T09:50:47.162Z,1.40
2022-12-28T09:53:26.831Z,2.50
2022-12-28T09:55:56.756Z,5.17
2022-12-28T09:58:24.031Z,5.90
2022-12-28T10:00:52.994Z,3.50
2022-12-28T10:03:33.458Z,6.03
2022-12-28T10:06:00.574Z,7.30
2022-12-28T10:08:28.715Z,5.37
2022-12-28T10:11:01.810Z,2.90
2022-12-28T10:16:21.216Z,1.40
2022-12-28T10:18:49.071Z,1.50
2022-12-28T10:21:18.592Z,1.40
2022-12-28T10:24:20.835Z,1.60
2022-12-28T10:26:35.638Z,1.60
2022-12-28T10:29:02.775Z,1.20
2022-12-28T10:31:35.053Z,1.50
2022-12-28T10:34:02.626Z,1.30
2022-12-28T10:36:34.649Z,1.40
2022-12-28T10:39:02.578Z,1.60
2022-12-28T10:41:38.220Z,1.37
2022-12-28T10:44:40.708Z,1.70
2022-12-28T10:47:25.270Z,1.47
2022-12-28T10:52:39.910Z,1.70
2022-12-28T10:55:27.114Z,1.70
2022-12-28T10:58:27.887Z,1.37
2022-12-28T11:00:41.125Z,1.60
2022-12-28T11:03:29.546Z,1.70
2022-12-28T11:06:26.590Z,1.60
2022-12-28T11:09:00.452Z,1.50
2022-12-28T11:11:28.122Z,1.67
2022-12-28T11:14:12.939Z,1.70
2022-12-28T11:16:40.929Z,1.90
2022-12-28T11:19:08.049Z,1.70
2022-12-28T11:21:35.349Z,2.03
2022-12-28T11:24:02.299Z,1.90
2022-12-28T11:26:29.703Z,1.73
2022-12-28T11:28:56.776Z,2.10
2022-12-28T11:31:38.437Z,2.07
2022-12-28T11:34:07.065Z,1.80
2022-12-28T11:36:38.637Z,1.70
2022-12-28T11:39:24.213Z,2.07
2022-12-28T11:42:27.752Z,1.90
2022-12-28T11:44:38.909Z,2.10
2022-12-28T11:47:17.240Z,1.97
2022-12-28T11:49:45.136Z,1.87
2022-12-28T11:52:20.605Z,1.90
2022-12-28T11:54:58.275Z,1.90
2022-12-28T11:57:40.577Z,1.97
2022-12-28T12:00:30.689Z,2.03
2022-12-28T12:03:03.671Z,1.60
2022-12-28T12:05:39.090Z,2.20
2022-12-28T12:08:11.886Z,2.07
2022-12-28T12:10:39.980Z,2.40
2022-12-28T12:13:30.442Z,2.50
2022-12-28T12:15:59.299Z,1.87
2022-12-28T12:18:28.006Z,1.97
2022-12-28T12:20:55.117Z,1.80
2022-12-28T12:23:28.707Z,2.07
2022-12-28T12:26:00.631Z,1.93
2022-12-28T12:28:33.091Z,1.87
2022-12-28T12:31:02.675Z,1.90
2022-12-28T12:33:32.418Z,2.27
2022-12-28T12:36:02.260Z,2.40
2022-12-28T12:38:35.141Z,2.17
2022-12-28T12:41:22.779Z,2.00
2022-12-28T12:43:58.736Z,2.13
2022-12-28T12:46:43.940Z,2.10
2022-12-28T12:49:29.772Z,2.00
2022-12-28T12:52:15.212Z,2.20
2022-12-28T12:55:01.052Z,2.10
2022-12-28T12:57:37.665Z,3.10
2022-12-28T13:00:10.592Z,4.10
2022-12-28T13:02:49.991Z,4.77
2022-12-28T13:05:23.622Z,3.07
2022-12-28T13:07:50.863Z,2.60
2022-12-28T13:10:26.107Z,2.67
2022-12-28T13:12:55.547Z,2.67
2022-12-28T13:15:22.229Z,2.13
2022-12-28T13:18:43.619Z,2.93
2022-12-28T13:21:00.543Z,2.00
2022-12-28T13:23:28.985Z,2.13
2022-12-28T13:25:58.643Z,2.40
2022-12-28T13:28:30.392Z,2.30
2022-12-28T13:31:11.138Z,2.20
2022-12-28T13:33:38.745Z,2.10
2022-12-28T13:36:06.923Z,2.10
2022-12-28T13:38:33.982Z,2.10
2022-12-28T13:41:03.033Z,1.87
2022-12-28T13:44:04.576Z,1.83
2022-12-28T13:46:32.301Z,2.10
2022-12-28T13:48:59.646Z,1.57
2022-12-28T13:51:26.904Z,2.10
2022-12-28T13:53:59.160Z,1.70
2022-12-28T13:56:27.150Z,1.80
2022-12-28T13:58:59.961Z,1.57
2022-12-28T14:01:35.548Z,1.90
2022-12-28T14:04:42.305Z,2.00
2022-12-28T14:06:55.128Z,2.03
2022-12-28T14:09:22.530Z,2.00
2022-12-28T14:11:49.747Z,2.20
2022-12-28T14:14:16.996Z,2.00
2022-12-28T14:16:44.229Z,2.27
2022-12-28T14:19:11.571Z,2.10
2022-12-28T14:21:45.982Z,2.10
2022-12-28T14:24:17.128Z,1.97
2022-12-28T14:26:53.812Z,2.50
2022-12-28T14:29:24.620Z,2.10
2022-12-28T14:31:57.339Z,3.10
2022-12-28T14:34:27.272Z,2.37
2022-12-28T14:36:55.801Z,1.80
2022-12-28T14:39:22.918Z,2.03
2022-12-28T14:41:50.110Z,2.60
2022-12-28T14:44:26.382Z,2.40
2022-12-28T14:46:54.466Z,2.10
2022-12-28T14:49:30.765Z,2.10
2022-12-28T14:52:09.776Z,2.00
2022-12-28T14:54:53.175Z,2.40
2022-12-28T14:57:23.249Z,2.30
2022-12-28T15:00:00.149Z,2.87
2022-12-28T15:02:45.197Z,2.13
2022-12-28T15:05:31.164Z,2.10
2022-12-28T15:07:58.233Z,1.80
2022-12-28T15:10:25.085Z,2.13
2022-12-28T15:12:52.329Z,2.10
2022-12-28T15:15:19.009Z,1.80
2022-12-28T15:17:46.832Z,1.90
2022-12-28T15:20:15.238Z,2.27
2022-12-28T15:22:41.944Z,2.10
2022-12-28T15:25:10.384Z,1.63
2022-12-28T15:27:39.294Z,2.00
2022-12-28T15:30:08.272Z,1.80
2022-12-28T15:32:36.630Z,2.10
2022-12-28T15:35:03.722Z,1.87
2022-12-28T15:37:30.419Z,1.93
2022-12-28T15:39:57.497Z,2.20
2022-12-28T15:42:24.223Z,1.70
2022-12-28T15:44:52.987Z,2.10
2022-12-28T15:47:20.986Z,1.70
2022-12-28T15:49:48.105Z,1.80
2022-12-28T15:52:15.232Z,1.90
2022-12-28T15:54:46.923Z,2.00
2022-12-28T15:57:15.609Z,1.63
2022-12-28T15:59:42.747Z,1.73
2022-12-28T16:02:13.020Z,1.87
2022-12-28T16:04:40.033Z,2.57
2022-12-28T16:07:07.164Z,1.90
2022-12-28T16:09:34.241Z,1.93
2022-12-28T16:12:01.375Z,1.67
2022-12-28T16:14:28.450Z,1.70
2022-12-28T16:16:55.658Z,2.00
2022-12-28T16:19:22.410Z,1.90
2022-12-28T16:21:50.395Z,3.77
2022-12-28T16:24:19.161Z,2.60
2022-12-28T16:26:46.390Z,2.20
2022-12-28T16:29:13.521Z,2.97
2022-12-28T16:31:40.860Z,2.40
2022-12-28T16:34:15.767Z,2.67
2022-12-28T16:36:43.150Z,2.50
2022-12-28T16:39:13.923Z,2.73
2022-12-28T16:41:40.754Z,2.20
2022-12-28T16:44:18.803Z,2.37
2022-12-28T16:46:46.232Z,2.57
2022-12-28T16:49:13.387Z,2.93
2022-12-28T16:51:43.829Z,4.20
2022-12-28T16:54:17.744Z,5.63
2022-12-28T16:56:48.440Z,10.80
2022-12-28T16:59:26.723Z,12.93
2022-12-28T17:01:54.740Z,11.80
2022-12-28T17:04:22.276Z,14.27
2022-12-28T17:06:50.861Z,11.17
2022-12-28T17:09:18.019Z,8.80
2022-12-28T17:11:47.659Z,7.60
2022-12-28T17:14:17.517Z,3.30
2022-12-28T17:16:51.727Z,4.73
2022-12-28T17:19:18.909Z,2.50
2022-12-28T17:21:45.993Z,17.17
2022-12-28T17:24:12.723Z,19.27
2022-12-28T17:26:39.782Z,22.63
2022-12-28T17:29:06.945Z,27.43
2022-12-28T17:31:34.129Z,21.53
2022-12-28T17:34:02.834Z,11.23
2022-12-28T17:36:29.965Z,11.67
2022-12-28T17:38:57.260Z,5.17
2022-12-28T17:41:26.573Z,3.20
2022-12-28T17:43:54.925Z,2.70
2022-12-28T17:46:22.781Z,3.40
2022-12-28T17:48:58.015Z,3.00
2022-12-28T17:51:25.527Z,2.90
2022-12-28T17:53:54.112Z,2.40
2022-12-28T17:56:21.190Z,2.50
2022-12-28T17:58:49.427Z,2.10
2022-12-28T18:01:16.209Z,2.37
2022-12-28T18:03:43.415Z,2.47
2022-12-28T18:06:10.449Z,2.13
2022-12-28T18:08:37.540Z,2.23
2022-12-28T18:11:04.616Z,2.47
2022-12-28T18:13:31.739Z,2.17
2022-12-28T18:15:58.584Z,2.20
2022-12-28T18:18:25.355Z,2.03
2022-12-28T18:20:59.614Z,2.40
2022-12-28T18:23:28.124Z,2.20
2022-12-28T18:26:08.644Z,2.27
2022-12-28T18:28:35.784Z,2.23
2022-12-28T18:31:03.294Z,2.20
2022-12-28T18:33:31.193Z,2.27
2022-12-28T18:35:59.359Z,2.10
2022-12-28T18:38:26.501Z,2.20
2022-12-28T18:40:55.619Z,2.17
2022-12-28T18:43:22.867Z,2.50
2022-12-28T18:45:57.224Z,1.90
2022-12-28T18:48:24.909Z,2.33
2022-12-28T18:50:56.677Z,2.17
2022-12-28T18:53:24.515Z,2.60
2022-12-28T18:55:58.016Z,2.50
2022-12-28T18:58:25.358Z,2.60
2022-12-28T19:00:52.451Z,2.97
2022-12-28T19:03:19.725Z,2.43
2022-12-28T19:05:46.927Z,2.63
2022-12-28T19:08:14.065Z,2.50
2022-12-28T19:10:41.133Z,2.23
2022-12-28T19:13:08.197Z,2.40
2022-12-28T19:15:34.876Z,2.30
2022-12-28T19:18:01.547Z,2.40
2022-12-28T19:20:29.322Z,2.33
2022-12-28T19:22:56.385Z,2.43
2022-12-28T19:25:23.053Z,2.60
2022-12-28T19:27:50.699Z,2.47
2022-12-28T19:30:17.758Z,2.87
2022-12-28T19:32:44.953Z,2.10
2022-12-28T19:35:11.651Z,2.07
2022-12-28T19:37:39.135Z,2.00
2022-12-28T19:40:06.747Z,2.70
2022-12-28T19:42:33.403Z,2.57
2022-12-28T19:45:02.370Z,2.57
2022-12-28T19:47:31.610Z,2.00
2022-12-28T19:49:58.264Z,2.17
2022-12-28T19:52:24.986Z,2.20
2022-12-28T19:54:52.068Z,2.43
2022-12-28T19:57:18.746Z,2.70
2022-12-28T19:59:45.891Z,2.30
2022-12-28T20:02:13.128Z,2.27
2022-12-28T20:04:40.274Z,2.10
2022-12-28T20:07:06.914Z,2.37
2022-12-28T20:09:33.605Z,2.83
2022-12-28T20:12:00.717Z,2.47
2022-12-28T20:14:27.862Z,2.20
2022-12-28T20:16:54.946Z,2.13
2022-12-28T20:19:22.109Z,2.13
2022-12-28T20:21:49.579Z,2.40
2022-12-28T20:24:17.596Z,2.17
2022-12-28T20:26:44.668Z,2.23
2022-12-28T20:29:13.417Z,2.10
2022-12-28T20:31:40.228Z,2.30
2022-12-28T20:34:07.383Z,1.90
2022-12-28T20:36:34.344Z,1.90
2022-12-28T20:39:01.475Z,2.00
2022-12-28T20:41:48.264Z,1.83
2022-12-28T20:44:17.606Z,2.10
2022-12-28T20:46:45.222Z,2.00
2022-12-28T20:49:12.548Z,1.83
2022-12-28T20:51:39.771Z,2.20
2022-12-28T20:54:06.567Z,2.03
2022-12-28T20:56:34.999Z,2.10
2022-12-28T20:59:02.226Z,1.83
2022-12-28T21:01:29.092Z,2.00
2022-12-28T21:03:56.424Z,1.93
2022-12-28T21:06:23.549Z,1.90
2022-12-28T21:08:50.703Z,2.00
2022-12-28T21:11:17.822Z,2.13
2022-12-28T21:13:45.309Z,1.73
2022-12-28T21:16:13.081Z,2.07
2022-12-28T21:18:40.192Z,2.20
2022-12-28T21:21:07.537Z,1.90
2022-12-28T21:23:34.614Z,1.90
2022-12-28T21:26:05.406Z,2.07
2022-12-28T21:28:32.605Z,2.20
2022-12-28T21:31:02.946Z,2.20
2022-12-28T21:33:30.063Z,1.97
2022-12-28T21:36:04.752Z,2.07
2022-12-28T21:38:32.305Z,1.90
2022-12-28T21:40:59.468Z,1.60
2022-12-28T21:43:26.200Z,1.87
2022-12-28T21:46:02.169Z,2.03
2022-12-28T21:48:34.823Z,2.20
2022-12-28T21:51:30.165Z,2.00
2022-12-28T21:54:00.860Z,1.90
2022-12-28T21:56:28.549Z,1.70
2022-12-28T21:58:56.097Z,2.10
2022-12-28T22:01:41.941Z,1.90
2022-12-28T22:04:30.325Z,1.90
2022-12-28T22:06:57.233Z,2.00
2022-12-28T22:09:43.244Z,2.03
2022-12-28T22:12:30.276Z,1.93
2022-12-28T22:15:23.745Z,1.77
2022-12-28T22:17:53.905Z,2.30
2022-12-28T22:20:21.051Z,2.10
2022-12-28T22:22:48.133Z,2.10
2022-12-28T22:25:15.426Z,2.10
2022-12-28T22:27:42.612Z,2.10
2022-12-28T22:30:10.120Z,1.90
2022-12-28T22:32:36.809Z,2.00
2022-12-28T22:35:03.986Z,1.90
2022-12-28T22:37:33.247Z,1.80
2022-12-28T22:40:00.635Z,2.03
2022-12-28T22:42:27.918Z,1.77
2022-12-28T22:44:54.922Z,1.90
2022-12-28T22:47:21.959Z,2.10
2022-12-28T22:49:49.072Z,1.60
2022-12-28T22:52:15.785Z,1.77
2022-12-28T22:54:45.431Z,1.90
2022-12-28T22:57:12.582Z,2.10
2022-12-28T22:59:39.734Z,1.80
2022-12-28T23:02:06.538Z,1.70
2022-12-28T23:04:33.432Z,2.00
2022-12-28T23:07:03.484Z,1.97
2022-12-28T23:09:31.472Z,1.90
2022-12-28T23:11:58.540Z,2.43
2022-12-28T23:14:44.329Z,1.80
2022-12-28T23:17:13.502Z,1.70
2022-12-28T23:20:00.257Z,1.90
2022-12-28T23:22:47.273Z,1.80
2022-12-28T23:25:34.116Z,2.00
2022-12-28T23:28:01.959Z,1.60
2022-12-28T23:30:29.395Z,1.70
2022-12-28T23:32:56.845Z,1.40
2022-12-28T23:35:24.444Z,1.80
2022-12-28T23:37:51.193Z,1.80
2022-12-28T23:40:19.077Z,1.60
2022-12-28T23:42:47.957Z,1.70
2022-12-28T23:45:16.520Z,1.90
2022-12-28T23:47:44.075Z,1.70
2022-12-28T23:50:11.917Z,2.00
2022-12-28T23:52:39.017Z,1.97
2022-12-28T23:55:06.330Z,1.80
2022-12-28T23:57:33.405Z,1.60
